»·PEaware :: N102MR KSAN-KPSP

N102MR :: KSAN-KPSP

FLIGHT INFORMATION

Flight Status: Arrived
Operator: Privately registered:
United States
More flights under this callsign
Pilot: Michael R. (16974)
Aircraft: CESSNA 172 SKYHAWK
(C172)
More flights by this aircraft type
Origin: KSAN San Diego Intl-Lindbergh
United States
Destination: KPSP Palm Springs Intl
United States
More flights between these airports :: More routes between these airports
Route:
File this flight plan on PilotEdge
Remarks:
Altitude:
(Current/Filed)
9,500ft
Speed:
(Current/Filed)
105kts
Departed: 23-Nov-17 07:52 PM
Arrived: 23-Nov-17 09:15 PM
Distance/Time
Traveled:
74nm/1:23
Distance/Time
To Go:
Arrived

Flight Plot

Page will automatically refresh every two minutes.


Map Options




Map Legend


Flown Route
Filed Route
Departure Airport
Arrival Airport
Navaid (VOR, NDB)
Fix

Horizontal Profiles

Position Reports

Time Latitude Longitude Heading Altitude Ground
Speed
23-Nov-17 19:53 32.731934 -117.190738 20 14ft 13kts
23-Nov-17 19:54 32.732339 -117.188849 103 15ft 0kts
23-Nov-17 19:55 32.731252 -117.184364 106 14ft 22kts
23-Nov-17 19:56 32.730704 -117.181293 43 16ft 0kts
23-Nov-17 19:57 32.732053 -117.183517 287 14ft 44kts
23-Nov-17 19:58 32.738071 -117.205491 284 472ft 78kts
23-Nov-17 19:59 32.750737 -117.200099 99 1086ft 83kts
23-Nov-17 20:00 32.745610 -117.173104 97 1699ft 83kts
23-Nov-17 20:01 32.756519 -117.150619 51 2337ft 75kts
23-Nov-17 20:02 32.767433 -117.132453 51 2987ft 57kts
23-Nov-17 20:03 32.776314 -117.117328 50 3329ft 64kts
23-Nov-17 20:04 32.789133 -117.096039 50 3694ft 87kts
23-Nov-17 20:05 32.803834 -117.071393 50 4101ft 94kts
23-Nov-17 20:06 32.818869 -117.046095 50 4591ft 93kts
23-Nov-17 20:07 32.833887 -117.020830 50 5084ft 93kts
23-Nov-17 20:08 32.848738 -116.995813 49 5577ft 91kts
23-Nov-17 20:09 32.863168 -116.971489 49 6067ft 89kts
23-Nov-17 20:10 32.875403 -116.950849 49 6495ft 85kts
23-Nov-17 20:11 32.888749 -116.928317 49 6979ft 80kts
23-Nov-17 20:12 32.900695 -116.908108 50 7439ft 67kts
23-Nov-17 20:13 32.906759 -116.893811 150 1655ft 14kts
23-Nov-17 20:14 32.730066 -117.175279 282 20ft 0kts
23-Nov-17 20:15 32.730269 -117.176081 284 20ft 33kts
23-Nov-17 20:16 32.730645 -117.177735 286 19ft 0kts
23-Nov-17 20:17 32.735370 -117.194434 291 400ft 73kts
23-Nov-17 20:18 32.747284 -117.204566 69 1088ft 81kts
23-Nov-17 20:19 32.740850 -117.174437 104 1526ft 104kts
23-Nov-17 20:20 32.748795 -117.145005 33 1938ft 113kts
23-Nov-17 20:21 32.771864 -117.118504 46 2335ft 116kts
23-Nov-17 20:22 32.791872 -117.088422 50 2786ft 113kts
23-Nov-17 20:23 32.809881 -117.059034 50 3273ft 106kts
23-Nov-17 20:24 32.826634 -117.031038 51 3762ft 100kts
23-Nov-17 20:25 32.842068 -117.005012 50 4252ft 97kts
23-Nov-17 20:26 32.857628 -116.978695 50 4745ft 95kts
23-Nov-17 20:27 32.872076 -116.954173 49 5229ft 90kts
23-Nov-17 20:28 32.887050 -116.928789 50 5639ft 95kts
23-Nov-17 20:29 32.902255 -116.902942 50 6037ft 95kts
23-Nov-17 20:30 32.917444 -116.877111 50 6433ft 94kts
23-Nov-17 20:31 32.932292 -116.851848 50 6828ft 92kts
23-Nov-17 20:32 32.946743 -116.827244 50 7221ft 89kts
23-Nov-17 20:33 32.960746 -116.803373 49 7611ft 85kts
23-Nov-17 20:34 32.973876 -116.780971 49 7996ft 79kts
23-Nov-17 20:35 32.985608 -116.760904 50 8359ft 67kts
23-Nov-17 20:36 32.997324 -116.740853 49 8572ft 87kts
23-Nov-17 20:37 33.012655 -116.714760 50 8802ft 102kts
23-Nov-17 20:38 33.027930 -116.688586 50 8986ft 92kts
23-Nov-17 20:39 33.042635 -116.663445 50 9189ft 92kts
23-Nov-17 20:40 33.057276 -116.638389 50 9390ft 92kts
23-Nov-17 20:41 33.071962 -116.613255 50 9546ft 96kts
23-Nov-17 20:42 33.088621 -116.584729 50 9543ft 110kts
23-Nov-17 20:43 33.105900 -116.555082 50 9542ft 112kts
23-Nov-17 20:44 33.123791 -116.524368 51 9542ft 113kts
23-Nov-17 20:45 33.141844 -116.493393 51 9542ft 114kts
23-Nov-17 20:46 33.159934 -116.462324 51 9542ft 114kts
23-Nov-17 20:47 33.178074 -116.431143 51 9542ft 114kts
23-Nov-17 20:48 33.196222 -116.399921 51 9542ft 114kts
23-Nov-17 20:49 33.211480 -116.374112 49 9542ft 114kts
23-Nov-17 20:50 33.233077 -116.338037 51 9479ft 119kts
23-Nov-17 20:51 33.251832 -116.305937 51 9459ft 116kts
23-Nov-17 20:52 33.268514 -116.281142 44 9458ft 113kts
23-Nov-17 20:53 33.293097 -116.249092 43 9458ft 112kts
23-Nov-17 20:54 33.314201 -116.221642 42 9458ft 112kts
23-Nov-17 20:55 33.330915 -116.199940 42 9458ft 112kts
23-Nov-17 20:56 33.355558 -116.167911 42 9458ft 112kts
23-Nov-17 20:57 33.373179 -116.144990 42 9458ft 112kts
23-Nov-17 20:58 33.399259 -116.139985 341 9459ft 101kts
23-Nov-17 20:59 33.431200 -116.149097 341 9458ft 101kts
23-Nov-17 21:00 33.454119 -116.155555 341 9458ft 102kts
23-Nov-17 21:01 33.482179 -116.161318 357 9324ft 116kts
23-Nov-17 21:02 33.517590 -116.159968 357 7852ft 129kts
23-Nov-17 21:03 33.553619 -116.159530 357 6151ft 133kts
23-Nov-17 21:04 33.589126 -116.159163 358 4414ft 120kts
23-Nov-17 21:05 33.619375 -116.158893 355 3995ft 110kts
23-Nov-17 21:06 33.634711 -116.186925 289 3960ft 103kts
23-Nov-17 21:07 33.642875 -116.219379 287 3961ft 100kts
23-Nov-17 21:08 33.650437 -116.251745 287 3943ft 101kts
23-Nov-17 21:09 33.657974 -116.284326 286 3943ft 101kts
23-Nov-17 21:10 33.665487 -116.316879 286 3942ft 101kts
23-Nov-17 21:11 33.672992 -116.349453 286 3939ft 101kts
23-Nov-17 21:12 33.689615 -116.375967 321 3680ft 104kts
23-Nov-17 21:13 33.713872 -116.399510 320 3000ft 108kts
23-Nov-17 21:14 33.736860 -116.421588 322 2584ft 109kts
23-Nov-17 21:15 33.757146 -116.440527 323 2080ft 87kts
23-Nov-17 21:16 33.776575 -116.458518 323 1597ft 94kts
23-Nov-17 21:17 33.794765 -116.476734 322 1108ft 90kts
23-Nov-17 21:18 33.806871 -116.487203 323 777ft 90kts
23-Nov-17 21:19 33.821067 -116.500115 312 400ft 49kts
23-Nov-17 21:20 33.821920 -116.506039 232 409ft 19kts
23-Nov-17 21:21 33.821855 -116.506405 50 410ft 0kts
23-Nov-17 21:22 33.821855 -116.506405 50 410ft 0kts
23-Nov-17 21:23 33.821855 -116.506405 50 410ft 0kts
23-Nov-17 21:24 33.821855 -116.506405 50 410ft 0kts
23-Nov-17 21:25 33.821855 -116.506405 50 410ft 0kts
23-Nov-17 21:26 33.821864 -116.506388 56 410ft 0kts
23-Nov-17 21:27 33.821864 -116.506388 56 410ft 0kts

Navigation Log

Ident Type
1. KSAN Airport
2. KPSP Airport